Terminal Aerodrome Forecast
Issued by NWS

Home | Current Version | Previous Version | Text Only | Print | Product List | Glossary On
Versions: 1 2 3 4 5 6 7 8 9 10 11 12 13 14 15 16 17 18 19 20 21 22 23 24 25 26 27
462
FTUS43 KTOP 272208 AAA
TAFFOE
TAF AMD
KFOE 272208Z 2722/2818 01008KT P6SM OVC026
     FM280600 04003KT 6SM BR OVC015
     FM281700 08010KT P6SM BKN025=

USA.gov is the U.S. government's official web portal to all federal, state and local government web resources and services.